Date,TemperatureHighF,TemperatureAvgF,TemperatureLowF,DewpointHighF,DewpointAvgF,DewpointLowF,HumidityHigh,HumidityAvg,HumidityLow,PressureMaxIn,PressureMinIn,WindSpeedMaxMPH,WindSpeedAvgMPH,GustSpeedMaxMPH,PrecipitationSumIn
2013-1-1,35,27,16,33,25,14,96,93,88,30.24,30.01,8,2,10,0.01
2013-1-2,38,23,13,26,18,11,93,82,52,30.25,30.14,12,2,12,0.00
2013-1-3,48,31,20,30,24,18,94,77,43,30.40,30.23,6,1,6,0.00
2013-1-4,49,33,20,27,23,18,93,70,38,30.42,30.28,14,2,14,0.00
2013-1-5,43,37,30,34,29,22,88,73,64,30.29,30.13,19,4,19,0.00
2013-1-6,32,27,24,29,24,20,91,88,85,30.32,30.20,5,1,5,0.00
2013-2-23,34,31,29,24,23,22,80,74,64,29.97,29.94,4,1,4,0.00
2013-2-24,62,41,27,37,30,22,83,66,38,29.98,29.82,12,3,12,0.00
2013-2-25,41,37,33,35,32,28,93,81,63,29.90,29.47,20,7,20,0.37
2013-2-26,35,33,32,32,30,30,95,91,85,29.88,29.41,10,2,10,0.13
2013-2-27,37,33,31,31,28,26,92,83,73,30.06,29.85,12,4,12,0.18
2013-2-28,36,32,28,29,27,25,88,81,73,30.19,30.05,10,3,10,0.01
2013-3-1,31,29,26,26,24,22,88,82,72,30.25,30.15,7,2,7,0.00
2013-3-2,44,30,23,26,22,18,88,73,46,30.32,30.17,8,1,8,0.00
2013-3-3,61,43,24,35,27,19,82,56,36,30.18,29.76,13,5,13,0.00
2013-3-4,70,54,41,45,38,31,73,55,40,29.91,29.61,15,4,15,0.00
2013-3-5,41,36,33,34,30,21,93,78,54,30.20,29.89,16,5,16,0.07
2013-3-14,73,57,39,43,36,19,59,45,34,30.28,30.09,15,5,15,0.00
2013-3-15,80,65,50,50,46,41,76,52,32,30.11,29.78,21,7,21,0.00
2013-3-16,66,58,44,50,44,36,77,61,50,29.90,29.76,17,7,17,0.00
2013-3-17,44,40,37,40,38,35,95,91,77,29.92,29.69,15,6,15,0.25
2013-3-18,59,45,38,42,36,25,96,75,35,30.06,29.70,10,3,10,0.02
2013-3-19,57,43,33,31,25,18,75,52,27,30.25,30.02,11,3,11,0.00
2013-3-20,49,37,28,30,22,14,92,60,31,30.36,30.10,10,2,10,0.00
2013-3-21,39,34,31,30,22,12,91,63,36,30.11,29.82,17,6,17,0.02
2013-3-22,40,36,33,36,33,30,93,88,82,29.94,29.83,12,3,12,0.09
2013-3-23,40,38,36,38,36,33,94,92,89,29.94,29.73,14,4,14,0.13
2013-3-24,37,32,23,36,29,19,95,88,77,30.11,29.66,14,5,14,0.19
2013-3-25,36,28,21,27,22,17,87,79,66,30.32,30.09,12,4,12,0.02
2013-3-26,52,33,20,28,23,18,93,69,38,30.41,30.28,9,1,9,0.00
2013-3-27,61,45,28,30,25,20,75,50,25,30.30,30.14,13,4,13,0.00
2013-3-28,71,58,48,51,40,29,65,52,45,30.20,30.10,15,5,15,0.00
2013-3-29,74,60,52,56,50,46,92,71,46,30.19,30.10,9,4,9,0.09
2013-3-30,72,59,53,57,53,49,95,80,58,30.11,29.88,13,4,13,0.70
2013-3-31,72,57,46,52,45,36,94,68,31,30.00,29.88,10,2,10,0.09
2013-4-1,54,46,41,42,37,29,84,70,59,30.20,29.98,17,4,17,0.13
2013-4-2,41,37,35,36,32,28,90,84,63,30.28,30.18,13,5,13,0.43
2013-4-3,53,44,36,33,28,23,85,55,36,30.26,30.15,20,5,20,0.00
2013-4-4,62,49,40,38,33,27,75,55,34,30.16,30.07,7,2,7,0.00
2013-4-5,72,54,36,44,35,27,77,52,31,30.20,29.98,10,2,10,0.00
2013-4-6,74,66,55,52,46,35,62,50,41,29.98,29.80,27,9,27,0.00
2013-4-7,77,65,53,59,54,48,89,69,50,29.93,29.75,20,5,20,0.00
2013-4-8,75,66,60,62,58,54,87,75,63,29.81,29.73,15,6,15,0.00
2013-4-9,78,71,64,64,60,56,76,68,57,29.79,29.71,13,6,13,0.00
2013-4-10,72,44,35,62,42,33,94,91,68,29.94,29.72,22,4,22,1.47
2013-4-11,53,39,33,36,32,30,94,77,48,29.90,29.76,19,5,19,0.01
2013-4-12,59,44,31,39,33,27,87,66,44,30.04,29.80,13,3,13,0.00
2013-4-13,51,41,38,40,34,31,81,75,65,30.06,30.02,2,0,2,0.00
2013-4-14,79,71,60,57,53,50,87,55,38,29.72,29.53,16,5,16,0.03
2013-4-15,83,60,50,65,50,39,87,71,52,29.90,29.71,14,4,14,0.00
2013-4-16,62,52,48,54,47,44,92,85,73,30.02,29.88,12,5,12,0.01
2013-4-17,81,68,48,69,60,46,93,78,60,29.97,29.60,16,6,16,0.19
2013-4-18,73,48,37,65,43,28,93,85,71,30.00,29.55,11,6,15,2.16
2013-4-19,57,43,32,35,30,27,82,62,38,30.09,29.97,15,5,15,0.00
2013-4-20,69,52,35,41,34,29,82,54,30,30.19,30.08,8,2,9,0.00
2013-4-21,71,60,52,44,39,34,64,48,26,30.25,30.12,19,5,19,0.00
2013-4-22,72,61,48,47,42,37,69,50,35,30.18,29.89,14,5,14,0.00
2013-4-23,65,46,36,51,40,33,93,83,48,30.13,29.84,10,4,11,0.51
2013-4-24,58,43,32,36,31,26,93,67,37,30.30,30.12,10,3,10,0.01
2013-4-25,74,52,36,41,33,27,69,50,25,30.36,30.20,7,2,8,0.00
2013-4-26,60,51,48,48,44,35,93,79,40,30.31,30.10,16,6,16,1.03
2013-4-27,57,51,49,53,49,47,93,91,86,30.11,30.00,11,2,11,0.16
2013-4-28,83,64,49,57,52,47,94,66,39,30.04,29.88,8,2,8,0.00
2013-4-29,86,71,57,64,56,50,81,60,37,29.90,29.77,14,5,16,0.00
2013-4-30,84,71,62,58,54,47,74,56,31,29.88,29.80,12,4,12,0.00
2013-5-1,85,74,61,63,58,49,75,58,44,30.07,29.88,11,4,11,0.00
2013-5-2,65,44,32,56,40,30,92,87,72,30.29,30.06,9,3,10,0.29
2013-5-3,44,37,32,38,34,30,94,87,71,30.25,29.93,11,4,11,0.59
2013-5-4,47,39,33,39,35,31,93,85,71,30.02,29.84,10,2,10,0.15
2013-5-5,60,48,33,50,42,31,93,83,65,30.10,30.00,7,2,7,0.00
2013-5-6,67,53,48,54,48,45,92,84,62,30.11,30.03,6,1,6,0.00
2013-5-7,82,63,45,59,51,43,92,67,40,30.10,29.99,6,1,6,0.00
2013-5-8,80,66,57,62,55,49,88,68,43,30.11,29.91,13,2,13,0.17
2013-5-9,77,65,56,64,59,52,92,79,64,29.98,29.88,16,3,16,0.81
2013-5-10,67,58,50,58,54,46,91,87,68,30.07,29.92,6,1,6,0.01
2013-5-11,74,60,45,58,46,34,90,63,32,30.22,30.06,9,2,9,0.00
2013-5-12,70,55,39,47,38,28,84,57,29,30.29,30.16,8,1,8,0.02
2013-5-13,82,62,48,58,48,40,80,61,42,30.17,30.03,14,2,14,0.00
2013-5-14,87,77,63,58,54,50,68,48,30,30.05,29.96,19,5,19,0.00
2013-5-15,78,69,63,67,61,52,88,75,55,29.99,29.87,13,3,13,0.24
2013-5-16,72,64,61,62,59,57,89,83,70,29.91,29.84,6,2,6,0.03
2013-5-17,91,72,59,67,61,55,88,70,43,29.95,29.87,7,1,7,0.01
2013-5-18,88,75,63,74,66,57,84,74,62,29.94,29.80,12,3,12,0.00
2013-5-19,88,77,68,68,65,60,80,66,47,29.89,29.63,13,3,13,0.11
2013-5-20,77,66,60,68,60,54,85,80,67,29.84,29.71,22,4,22,1.19
2013-5-21,67,63,60,59,56,54,81,79,74,29.88,29.72,10,2,10,0.03
2013-6-3,70,68,67,56,54,53,61,61,60,29.95,29.92,6,2,6,0.00
2013-6-4,81,72,62,64,56,48,61,58,55,30.01,29.91,12,3,12,0.00
2013-6-5,82,71,60,62,54,45,63,55,50,29.99,29.89,10,3,12,1.31
2013-6-6,76,69,55,58,51,37,59,54,49,29.96,29.91,4,1,4,0.00
2013-6-7,79,67,52,58,49,35,61,53,40,30.01,29.93,6,1,6,0.00
2013-6-8,82,70,56,63,52,38,60,52,48,29.96,29.86,5,1,5,0.00
2013-6-9,85,72,65,64,52,44,57,49,44,29.92,29.84,6,2,6,0.00
2013-6-10,92,79,63,72,60,42,58,52,46,29.94,29.86,13,4,13,0.00
2013-6-11,93,83,74,73,64,55,62,53,38,30.01,29.92,16,4,16,0.00
2013-6-12,92,83,75,72,66,56,64,57,49,29.98,29.90,21,6,21,0.00
2013-6-13,94,79,69,70,61,48,62,54,45,30.06,29.95,8,2,8,0.00
2013-6-14,94,80,66,74,59,45,57,50,45,30.05,29.94,8,2,8,0.00
2013-6-15,90,76,66,72,55,45,56,48,44,30.05,29.95,12,2,12,0.99
2013-6-16,90,77,66,68,50,41,48,40,33,30.03,29.93,12,2,12,0.00
2013-6-17,81,69,64,51,38,32,38,32,26,29.99,29.92,13,1,13,0.15
2013-6-18,92,74,61,67,44,31,50,36,18,30.06,29.97,7,1,7,0.01
2013-6-19,88,80,61,68,50,11,53,38,11,30.07,29.99,9,1,9,0.00
2013-6-20,91,81,68,68,39,9,48,25,7,30.09,29.99,12,2,12,0.00
2013-6-21,92,85,72,73,50,12,53,34,1,30.09,30.01,13,3,13,0.00
2013-6-22,89,81,72,70,42,13,56,28,1,30.08,29.95,11,2,11,0.00
2013-6-23,91,80,71,71,40,12,54,26,1,30.02,29.93,13,3,13,0.00
2013-6-24,91,81,73,72,44,13,55,32,3,30.07,29.95,15,2,15,0.00
2013-6-25,89,81,74,70,53,14,59,41,10,29.99,29.85,15,3,15,0.00
2013-6-26,94,83,76,77,60,15,60,48,3,29.96,29.84,16,4,16,0.00
2013-6-27,100,86,72,78,47,12,57,29,1,30.01,29.89,8,2,8,0.00
2013-6-28,94,81,70,71,48,11,58,35,1,29.99,29.86,6,1,6,0.00
2013-6-29,88,76,62,63,50,15,59,42,16,29.93,29.84,8,2,8,0.00
2013-6-30,84,70,60,62,44,3,59,42,8,30.01,29.88,12,1,12,0.00
2013-7-1,83,70,60,60,37,3,58,34,5,30.08,30.00,10,1,10,0.00
2013-7-2,86,71,57,59,46,20,59,42,23,30.12,30.05,10,1,10,0.00
2013-7-3,89,75,59,60,52,33,58,46,34,30.13,30.03,8,2,8,0.00
2013-7-4,93,76,63,63,55,41,59,49,34,30.09,29.99,7,2,9,0.00
2013-7-5,92,77,65,64,56,45,59,50,35,30.06,29.95,9,2,9,0.00
2013-7-6,89,78,69,69,61,50,61,56,47,30.07,29.96,8,1,8,0.03
2013-7-7,91,83,72,70,65,53,61,54,41,30.07,30.00,10,2,10,0.00
2013-7-8,97,83,72,72,65,51,62,54,42,30.12,30.04,13,2,13,0.00
2013-7-9,97,84,74,72,64,47,62,51,38,30.10,29.98,14,3,14,0.00
2013-7-10,93,81,75,73,65,57,63,59,50,30.04,30.01,9,2,9,0.00
2013-8-6,94,85,71,30,22,-20,10,1,1,29.93,29.82,10,2,10,0.00
2013-8-7,83,77,72,21,16,12,1,1,1,29.96,29.83,9,2,9,0.21
2013-8-8,87,77,68,24,16,9,1,1,1,29.98,29.89,9,2,9,0.88
2013-8-9,86,73,65,23,14,7,1,1,1,30.07,29.93,14,2,14,0.01
2013-8-10,90,75,65,60,18,7,39,5,1,30.15,30.07,15,3,15,0.00
2013-8-11,95,77,66,61,18,-9,35,3,1,30.11,30.03,8,1,8,0.00
2013-8-12,90,75,68,53,15,8,30,2,1,30.11,29.98,9,1,9,0.25
2013-8-13,85,74,64,22,14,6,1,1,1,30.09,30.00,8,1,8,0.00
2013-8-14,84,70,59,62,23,-17,48,15,1,30.17,30.08,10,2,10,0.00
2013-8-15,84,65,54,60,16,-2,49,11,1,30.14,30.03,5,1,5,0.00
2013-8-16,85,69,58,64,25,2,50,18,1,30.14,30.04,8,2,8,0.00
2013-8-17,87,66,54,64,17,-1,49,12,1,30.17,30.08,6,1,6,0.00
2013-8-18,91,70,58,66,21,2,49,12,1,30.16,30.07,6,1,6,0.00
2013-8-19,92,74,59,67,28,-19,50,17,1,30.13,30.03,5,1,5,0.00
2013-8-20,90,75,61,68,30,4,51,18,1,30.11,30.03,7,1,7,0.00
2013-8-21,93,77,62,71,29,5,53,16,1,30.13,30.05,9,2,9,0.00
2013-8-22,97,80,70,74,30,-1,52,15,1,30.14,30.04,7,1,7,0.00
2013-8-23,97,81,65,72,35,7,51,18,1,30.11,30.02,6,1,6,0.00
2013-8-24,95,81,67,73,32,9,51,16,1,30.17,30.07,6,2,6,0.00
2013-8-25,99,82,68,74,33,-10,51,16,1,30.23,30.14,6,2,6,0.00
2013-8-26,94,81,70,72,29,10,50,13,1,30.23,30.11,8,2,8,0.00
2013-8-27,93,79,68,72,30,-11,53,15,1,30.15,30.05,10,2,10,0.00
2013-8-28,94,80,68,73,32,10,52,16,1,30.11,30.04,10,2,10,0.00
2013-8-29,99,83,70,74,40,11,51,22,1,30.10,30.01,8,2,8,0.00
2013-8-30,98,84,72,75,40,10,54,22,1,30.03,29.90,9,2,9,0.00
2013-8-31,99,84,73,75,42,14,53,23,1,29.94,29.83,10,2,10,0.00
2013-9-1,91,79,69,71,25,-16,53,10,1,29.95,29.82,9,2,9,0.05
2013-9-2,90,75,63,67,30,6,52,18,1,30.04,29.94,6,1,6,0.00
2013-9-3,94,74,55,66,33,-8,52,23,1,30.10,30.01,5,1,5,0.00
2013-9-4,97,76,59,66,34,-5,52,23,1,30.17,30.07,5,1,5,0.00
2013-9-5,97,76,60,67,35,-1,52,23,1,30.21,30.12,5,1,5,0.00
2013-9-6,97,77,61,68,36,4,52,23,1,30.16,30.03,7,1,7,0.00
2013-9-7,97,82,69,71,41,10,52,24,1,30.07,29.96,10,2,10,0.00
2013-9-8,98,82,71,71,40,12,52,23,1,30.00,29.91,9,2,9,0.00
2013-9-9,96,83,71,70,47,12,53,31,1,30.03,29.94,12,2,12,0.00
2013-9-10,96,82,73,70,55,13,55,41,1,30.14,30.01,11,2,11,0.00
2013-9-11,98,82,71,71,42,4,53,27,1,30.18,30.07,9,1,9,0.00
2013-9-12,93,80,68,71,37,10,53,23,1,30.12,30.03,8,1,8,0.00
2013-9-13,85,72,61,57,39,5,55,33,1,30.13,30.03,11,3,11,0.00
2013-9-14,87,68,52,56,34,-3,54,30,1,30.11,29.99,9,2,9,0.00
2013-9-15,92,75,62,68,47,11,55,38,1,30.07,30.00,12,2,12,0.00
2013-9-16,80,70,64,19,11,7,1,1,1,30.21,30.06,9,1,9,0.28
2013-9-17,81,72,64,19,12,7,1,1,1,30.16,30.01,8,3,9,0.00
2013-9-18,93,78,68,71,29,9,52,15,1,30.04,29.93,10,2,10,0.00
2013-9-19,92,79,67,71,32,9,53,17,1,30.00,29.87,15,3,15,0.00
2013-9-20,72,65,53,44,12,-2,39,7,1,30.03,29.94,10,1,10,0.11
2013-9-21,82,62,45,54,22,-8,53,21,1,30.04,29.93,7,1,7,0.00
2013-9-22,82,64,48,55,25,-11,52,22,1,30.01,29.88,8,1,8,0.00
2013-9-23,83,67,55,58,30,-1,54,26,1,29.95,29.82,13,2,13,0.00
2013-9-24,82,68,56,61,28,0,54,24,1,29.89,29.85,12,2,12,0.00
2013-9-25,91,67,51,65,22,-4,52,17,1,29.91,29.84,6,1,6,0.00
2013-9-26,90,73,58,64,32,2,52,22,1,29.96,29.86,9,2,9,0.00
2013-9-27,88,75,63,65,36,6,53,26,1,30.02,29.91,9,2,9,0.00
2013-9-28,77,66,53,45,10,-19,32,4,1,30.08,29.90,10,2,10,0.59
2013-9-29,84,63,51,58,18,-22,51,16,1,30.09,29.96,9,1,9,0.00
2013-9-30,85,66,52,64,19,-3,50,13,1,29.96,29.85,8,1,8,0.01
2013-10-1,88,72,62,67,24,5,52,14,1,30.00,29.89,7,1,7,0.00
2013-10-2,87,72,64,62,18,7,45,6,1,30.04,29.92,12,1,12,0.00
2013-10-3,87,74,66,64,20,8,48,8,1,29.95,29.84,10,2,10,0.00
2013-10-4,87,75,67,66,22,8,50,9,1,29.93,29.85,11,2,11,0.00
2013-10-5,73,55,45,48,5,-9,54,8,1,30.08,29.91,10,1,10,1.07
2013-10-6,68,54,43,47,17,-10,55,25,1,30.02,29.94,13,3,13,0.00
2013-10-7,82,56,38,50,19,-13,55,23,1,30.15,30.01,5,0,5,0.00
2013-10-8,78,61,46,53,24,-8,53,25,1,30.15,30.05,10,2,10,0.00
2013-10-9,83,63,44,54,24,-24,56,24,1,30.12,30.03,9,1,9,0.00
2013-10-10,82,65,51,60,24,-4,55,21,1,30.09,29.92,8,2,8,0.00
2013-10-11,77,66,56,26,8,0,16,1,1,29.93,29.85,14,2,14,0.02
2013-10-12,78,64,56,58,17,0,52,15,1,30.18,29.88,9,1,9,0.64
2013-10-13,78,62,54,56,28,-7,53,30,1,30.32,30.18,10,2,10,0.01
2013-10-14,64,60,58,44,13,2,54,14,1,30.25,29.93,10,1,10,0.09
2013-10-15,61,55,47,8,-1,-7,13,1,1,30.06,29.88,8,1,10,0.18
2013-10-16,65,50,35,48,11,-35,56,21,1,30.12,30.00,5,1,5,0.00
2013-10-17,68,50,38,48,11,-13,57,20,1,30.05,29.96,10,2,10,0.01
2013-10-18,58,46,37,39,0,-14,49,11,1,30.09,29.99,6,1,6,0.22
2013-10-19,62,45,32,42,7,-18,57,21,1,30.11,29.99,11,3,11,0.01
2013-10-20,71,55,42,45,20,-11,58,28,1,30.00,29.85,14,2,14,0.00
2013-10-21,62,49,37,43,11,-14,57,22,1,30.11,29.94,5,0,5,0.00
2013-10-22,72,51,36,49,20,-16,60,31,1,30.07,29.93,15,3,15,0.00
2013-10-23,66,48,32,43,13,-19,58,27,1,30.17,30.00,7,1,7,0.00
2013-10-24,58,45,37,37,14,-14,60,31,1,30.38,30.07,9,1,9,0.00
2013-10-25,63,46,32,33,19,-19,58,37,1,30.45,30.18,9,2,9,0.00
2013-10-26,67,52,44,51,16,-9,57,26,1,30.18,30.09,13,3,13,0.00
2013-10-27,74,52,34,44,21,-29,60,33,1,30.12,29.98,6,1,6,0.00
2013-10-28,74,57,43,54,13,-29,55,17,1,30.14,30.01,7,1,7,0.00
2013-10-29,57,55,54,1,-1,-2,1,1,1,30.11,29.99,8,1,8,1.25
2013-11-1,61,49,44,45,8,-10,57,18,1,30.00,29.86,4,1,4,0.00
2013-11-2,62,47,36,43,11,-15,58,25,1,30.20,30.00,6,1,6,0.00
2013-11-3,64,49,35,41,20,-16,58,34,1,30.18,29.98,10,2,12,0.00
2013-11-4,64,54,49,46,12,-5,56,19,1,30.12,29.97,10,3,10,0.03
2013-11-5,59,54,51,3,-1,-4,1,1,1,30.12,29.91,8,3,8,0.68
2013-11-6,59,41,28,10,-11,-21,23,3,1,30.33,29.89,7,2,7,1.05
2013-11-7,67,44,26,43,10,-23,58,26,1,30.41,30.31,8,1,8,0.01
2013-11-8,67,52,36,42,21,-16,60,32,1,30.32,30.02,16,3,16,0.00
2013-11-9,71,56,47,46,36,1,60,49,16,30.26,30.06,12,3,12,0.00
2013-11-10,72,56,42,43,28,-11,60,37,1,30.36,30.23,12,2,12,0.00
2013-11-11,63,53,39,48,14,-13,58,23,1,30.43,30.16,12,3,12,0.00
2013-11-12,43,31,21,21,13,-15,63,49,5,30.73,30.43,13,3,13,0.00
2013-11-13,53,37,20,23,17,1,60,46,29,30.65,30.26,12,2,12,0.00
2013-11-14,54,42,32,31,24,20,62,50,32,30.26,30.00,15,5,15,0.00
2013-11-15,64,51,41,47,19,-11,62,33,1,30.01,29.81,14,3,14,0.07
2013-11-16,72,61,50,51,6,-4,48,3,1,29.82,29.57,19,8,19,0.10
2013-11-17,72,64,47,54,27,9,57,25,1,30.08,29.51,27,8,27,0.00
2013-11-18,67,50,35,40,23,-17,61,38,1,30.24,30.03,9,1,9,0.00
2013-11-19,62,52,44,31,27,20,53,39,25,30.23,30.02,16,3,16,0.00
2013-11-20,61,54,46,40,29,14,54,39,23,30.03,29.87,17,6,17,0.04
2013-11-21,57,48,32,43,2,-18,60,11,1,30.29,29.96,10,3,10,1.12
2013-11-22,33,30,27,-18,-20,-22,1,1,1,30.50,30.28,11,5,11,0.00
2013-11-23,42,30,20,25,6,-21,64,40,1,30.64,30.47,13,2,13,0.00
2013-11-24,32,25,18,16,10,0,61,52,46,30.62,30.30,6,0,6,0.00
2013-11-25,36,33,30,20,2,-19,62,29,1,30.30,30.14,9,1,9,0.01
2013-11-26,46,32,25,30,1,-23,62,31,1,30.33,30.11,9,1,9,0.00
2013-11-27,44,27,16,18,10,-16,62,49,22,30.40,30.24,12,0,12,0.00
2013-11-28,56,38,26,32,22,6,62,52,37,30.41,30.21,16,4,16,0.00
2013-11-29,57,42,32,31,21,2,60,43,29,30.46,30.26,9,2,9,0.00
2013-11-30,60,48,38,44,25,-10,62,45,1,30.28,30.09,19,5,19,0.00
2013-12-1,50,44,38,-4,-9,-14,1,1,1,30.11,29.88,7,1,7,0.02
2013-12-2,67,48,37,49,3,-15,57,12,1,29.88,29.65,10,2,10,0.00
2013-12-3,72,53,42,50,11,-14,59,17,1,29.66,29.53,8,2,8,0.02
2013-12-4,55,42,28,28,-10,-22,35,2,1,30.00,29.52,18,4,18,0.00
2013-12-5,28,23,19,14,-4,-28,61,33,1,30.26,29.97,10,4,10,0.00
2013-12-6,21,18,12,10,-8,-31,65,37,1,30.51,30.20,11,3,11,0.00
2013-12-7,23,15,6,9,4,-5,66,61,51,30.58,30.25,10,2,10,0.00
2013-12-8,28,24,19,10,-18,-30,61,12,1,30.25,29.96,14,2,14,0.00
2013-12-9,26,21,17,13,-13,-31,63,23,1,30.31,30.13,9,2,9,0.00
2013-12-10,37,18,6,19,-9,-37,64,36,4,30.37,30.20,10,2,10,0.16
2013-12-11,40,26,18,22,3,-29,66,42,1,30.56,30.23,8,1,10,0.03
2013-12-12,45,29,14,27,17,5,68,61,48,30.56,30.21,16,3,16,0.01
2013-12-13,38,34,31,24,0,-18,64,26,1,30.21,29.82,12,4,12,0.56
2013-12-14,33,29,20,-18,-21,-28,10,2,1,30.21,29.82,11,3,11,0.10
2013-12-15,54,35,18,36,7,-30,62,35,1,30.22,30.07,15,4,15,0.00
2013-12-16,66,48,39,36,32,27,63,54,31,30.11,30.02,12,5,12,0.00
2013-12-17,59,43,28,39,21,-33,64,45,1,30.28,30.10,8,0,8,0.00
2013-12-18,65,50,36,40,33,24,63,53,36,30.25,29.91,20,7,20,0.00
2013-12-19,61,56,52,41,30,2,62,39,9,29.91,29.70,19,8,19,0.00
2013-12-20,63,40,28,35,-6,-22,44,12,1,29.91,29.68,15,4,15,0.03
2013-12-21,32,31,29,-19,-19,-21,2,1,1,29.80,29.49,0,0,1,0.00
2013-12-22,31,27,24,-11,-20,-24,20,7,1,30.32,29.69,0,0,0,0.00
2013-12-23,29,22,14,13,-3,-14,56,35,18,30.54,30.32,0,0,0,0.00
2013-12-24,44,27,14,29,9,-10,60,47,30,30.52,30.18,11,1,11,0.38
2013-12-25,45,34,28,31,2,-22,59,26,1,30.35,30.24,8,2,8,0.00
2013-12-26,53,36,23,32,5,-33,62,30,1,30.35,30.24,13,2,13,0.02
2013-12-27,60,43,32,35,23,-19,62,47,9,30.37,30.26,11,2,11,0.00
2013-12-28,58,44,34,37,26,9,61,50,35,30.26,29.90,12,3,12,0.00
2013-12-29,45,29,18,30,14,-1,65,55,23,30.25,29.90,10,1,10,0.00
2013-12-30,39,24,11,20,12,2,68,61,45,30.31,30.17,10,2,10,0.00
2013-12-31,55,38,22,31,21,9,63,52,33,30.32,30.11,16,5,16,0.00
2014-1-1,56,38,18,33,22,-10,63,52,23,30.16,29.86,10,3,10,0.00
2014-1-2,28,15,5,12,4,-4,71,63,43,30.41,30.16,9,0,9,0.01